Time;durP1;ratioP1;P1;durP2;ratioP2;P2;SDS_P1;SDS_P2;PMS_P1;PMS_P2;Temp;Humidity;BMP_temperature;BMP_pressure;BME280_temperature;BME280_humidity;BME280_pressure;Samples;Min_cycle;Max_cycle;Signal;HPM_P1;HPM_P2
2022/07/15 00:00:34;;;;;;;5.10;1.90;;;17.40;84.20;;;17.26;64.96;97526.88;4941597;28;20042;-40
2022/07/15 00:03:00;;;;;;;2.80;1.92;;;17.40;84.10;;;17.22;65.34;97522.72;4953046;28;20034;-40
2022/07/15 00:05:26;;;;;;;3.92;1.83;;;17.30;84.30;;;17.18;66.16;97532.69;4952702;28;20571;-39
2022/07/15 00:07:52;;;;;;;3.88;2.10;;;17.30;84.80;;;17.05;66.37;97513.06;4953067;28;20098;-39
2022/07/15 00:10:18;;;;;;;3.50;2.13;;;17.30;85.00;;;17.04;66.72;97519.38;4954914;28;20397;-40
2022/07/15 00:13:04;;;;;;;3.83;1.90;;;17.20;85.10;;;16.96;66.30;97526.03;4953966;28;20038;-40
2022/07/15 00:15:32;;;;;;;2.85;1.80;;;17.10;85.30;;;16.92;66.12;97515.63;4948328;28;20542;-40
2022/07/15 00:18:01;;;;;;;2.78;1.90;;;17.10;84.90;;;16.90;66.65;97518.38;4943810;28;20026;-40
2022/07/15 00:20:33;;;;;;;2.08;1.73;;;17.10;85.50;;;16.86;67.37;97524.84;4950750;28;20114;-40
2022/07/15 00:23:03;;;;;;;3.85;1.70;;;17.00;85.90;;;16.79;67.62;97523.47;4953085;28;20031;-40
2022/07/15 00:25:29;;;;;;;3.35;1.67;;;16.90;86.30;;;16.72;67.72;97519.47;4952527;28;20031;-39
2022/07/15 00:27:59;;;;;;;3.47;1.90;;;16.90;86.30;;;16.59;67.54;97517.53;4956331;28;20034;-40
2022/07/15 00:30:30;;;;;;;3.20;1.85;;;16.80;86.10;;;16.60;67.86;97516.59;4953350;28;20049;-40
2022/07/15 00:32:56;;;;;;;4.82;1.67;;;16.70;86.60;;;16.55;68.22;97521.34;4954138;28;20153;-40
2022/07/15 00:35:22;;;;;;;3.25;1.90;;;16.70;86.70;;;16.47;69.33;97517.41;4954570;28;20105;-40
2022/07/15 00:37:48;;;;;;;4.88;2.05;;;16.60;87.40;;;16.42;69.68;97521.22;4954477;28;20062;-41
2022/07/15 00:40:13;;;;;;;4.72;1.95;;;16.60;87.90;;;16.38;70.11;97521.47;4954794;28;20090;-40
2022/07/15 00:42:45;;;;;;;4.35;2.05;;;16.50;88.10;;;16.35;70.55;97517.19;4952032;28;20055;-40
2022/07/15 00:45:16;;;;;;;2.97;1.90;;;16.50;88.50;;;16.31;70.78;97526.31;4953024;28;20160;-40
2022/07/15 00:47:49;;;;;;;5.83;2.00;;;16.50;88.80;;;16.23;68.66;97517.91;4957212;28;20031;-40
2022/07/15 00:50:17;;;;;;;3.13;1.92;;;16.40;87.30;;;16.25;68.97;97525.81;4953427;28;20058;-40
2022/07/15 00:52:59;;;;;;;4.15;1.85;;;16.40;87.60;;;16.21;68.32;97527.78;4955934;28;20301;-39
2022/07/15 00:55:30;;;;;;;3.35;2.28;;;16.40;87.20;;;16.15;67.61;97523.69;4954248;28;20027;-41
2022/07/15 00:58:02;;;;;;;3.75;2.45;;;16.40;86.70;;;16.06;66.31;97521.56;4955028;28;20066;-40
2022/07/15 01:00:28;;;;;;;1.80;1.50;;;16.30;85.70;;;16.09;66.63;97521.34;4951776;28;20077;-39
2022/07/15 01:02:54;;;;;;;3.15;1.90;;;16.30;86.00;;;16.07;67.02;97522.41;4957352;28;20664;-39
2022/07/15 01:05:22;;;;;;;3.28;1.83;;;16.20;86.20;;;16.03;67.01;97522.56;4953959;28;20031;-39
2022/07/15 01:07:49;;;;;;;3.80;1.80;;;16.20;86.30;;;16.06;66.73;97532.19;4951042;28;20034;-40
2022/07/15 01:10:18;;;;;;;5.28;1.70;;;16.20;86.20;;;16.00;66.86;97522.72;4942071;28;20038;-41
2022/07/15 01:12:47;;;;;;;3.55;1.75;;;16.20;86.40;;;15.99;66.67;97525.50;4953052;28;20239;-39
2022/07/15 01:15:14;;;;;;;4.07;1.67;;;16.20;86.30;;;15.96;66.54;97529.19;4950872;28;20030;-40
2022/07/15 01:17:40;;;;;;;3.47;1.90;;;16.10;86.00;;;15.95;66.08;97530.13;4971171;23;20030;-40
2022/07/15 01:20:07;;;;;;;3.80;1.55;;;16.10;85.80;;;15.90;66.64;97521.56;4955614;28;20071;-39
2022/07/15 01:22:33;;;;;;;2.75;1.70;;;16.10;86.20;;;15.88;67.89;97531.44;4953029;28;20101;-40
2022/07/15 01:24:59;;;;;;;4.82;1.73;;;16.00;87.10;;;15.83;68.62;97537.00;4955989;28;20519;-39
2022/07/15 01:27:25;;;;;;;5.10;1.80;;;15.90;87.70;;;15.78;67.17;97533.72;4952967;28;20035;-39
2022/07/15 01:29:51;;;;;;;3.03;1.60;;;15.90;86.80;;;15.77;66.86;97537.34;4937943;28;20110;-40
2022/07/15 01:32:17;;;;;;;4.28;1.95;;;15.90;86.60;;;15.77;67.38;97534.69;4942176;28;20035;-40
2022/07/15 01:34:43;;;;;;;2.85;1.67;;;15.90;87.00;;;15.69;68.20;97528.03;4942201;28;20031;-40
2022/07/15 01:37:08;;;;;;;3.15;1.67;;;15.80;87.50;;;15.70;69.07;97535.91;4942657;29;20034;-39
2022/07/15 01:39:34;;;;;;;2.22;1.73;;;15.80;88.20;;;15.64;69.13;97530.94;4942699;28;20059;-39
2022/07/15 01:42:00;;;;;;;4.80;1.73;;;15.80;88.40;;;15.66;69.53;97535.22;4941144;29;20042;-39
2022/07/15 01:44:26;;;;;;;1.95;1.42;;;15.70;88.70;;;15.64;69.98;97533.59;4942107;29;20384;-39
2022/07/15 01:46:51;;;;;;;3.17;1.85;;;15.70;90.00;;;15.62;69.85;97532.84;4941400;29;20118;-41
2022/07/15 01:49:25;;;;;;;2.88;1.85;;;15.70;89.00;;;15.62;69.46;97532.84;4943602;28;20400;-40
2022/07/15 01:51:53;;;;;;;4.40;1.77;;;15.70;88.90;;;15.63;68.75;97534.53;4941419;28;20043;-40
2022/07/15 01:54:20;;;;;;;2.40;1.70;;;15.70;88.50;;;15.60;68.86;97540.91;4943683;28;20624;-39
2022/07/15 01:56:46;;;;;;;3.13;1.60;;;15.70;88.50;;;15.57;68.24;97530.41;4944022;29;20055;-39
2022/07/15 01:59:12;;;;;;;2.30;1.40;;;15.60;88.30;;;15.53;68.19;97526.22;4943143;29;20031;-39
2022/07/15 02:01:37;;;;;;;2.28;1.83;;;15.70;88.20;;;15.59;67.71;97530.34;4943477;28;20416;-39
2022/07/15 02:04:03;;;;;;;2.42;1.63;;;15.60;87.90;;;15.56;68.02;97525.19;4945574;29;20035;-39
2022/07/15 02:06:29;;;;;;;1.92;1.40;;;15.60;87.90;;;15.49;67.88;97516.72;4945589;29;20035;-39
2022/07/15 02:08:56;;;;;;;3.00;1.30;;;15.60;88.00;;;15.51;67.94;97519.28;4946771;28;20046;-40
2022/07/15 02:11:22;;;;;;;2.67;1.40;;;15.60;88.20;;;15.45;67.97;97521.34;4945483;29;20119;-39
2022/07/15 02:13:48;;;;;;;3.22;1.30;;;15.50;88.00;;;15.43;68.26;97522.34;4941170;29;20118;-39
2022/07/15 02:16:14;;;;;;;6.32;1.40;;;15.50;88.30;;;15.38;68.40;97530.59;4945281;29;20031;-39
2022/07/15 02:18:39;;;;;;;4.95;1.77;;;15.50;88.40;;;15.35;68.94;97524.56;4945442;28;20031;-39
2022/07/15 02:21:05;;;;;;;3.17;1.40;;;15.40;88.80;;;15.28;69.91;97524.03;4945183;29;20117;-39
2022/07/15 02:23:31;;;;;;;2.22;1.70;;;15.30;89.40;;;15.24;70.17;97530.47;4945969;28;20538;-39
2022/07/15 02:25:57;;;;;;;2.03;1.27;;;15.30;89.60;;;15.19;70.60;97524.53;4943812;29;20844;-39
2022/07/15 02:28:23;;;;;;;2.80;1.58;;;15.30;90.00;;;15.12;71.01;97525.81;4945530;29;20038;-39
2022/07/15 02:30:48;;;;;;;3.67;1.60;;;15.20;90.10;;;15.11;71.06;97526.75;4941141;29;20031;-39
2022/07/15 02:33:14;;;;;;;2.85;1.60;;;15.20;90.10;;;15.08;71.41;97525.97;4948674;28;20035;-39
2022/07/15 02:35:42;;;;;;;1.40;1.30;;;;;;;15.03;72.32;97517.38;4941863;29;20479;-39
2022/07/15 02:38:07;;;;;;;3.25;1.42;;;15.10;90.20;;;14.97;72.35;97517.72;4947640;29;20027;-39
2022/07/15 02:40:34;;;;;;;2.72;1.50;;;15.10;90.50;;;14.98;71.16;97526.53;4945970;29;20038;-39
2022/07/15 02:43:02;;;;;;;4.78;1.50;;;15.00;90.20;;;14.95;71.26;97524.03;4946858;29;20027;-39
2022/07/15 02:45:33;;;;;;;3.35;1.50;;;15.00;90.20;;;14.93;71.91;97529.44;4944238;29;20518;-39
2022/07/15 02:47:59;;;;;;;1.95;1.50;;;15.00;90.50;;;14.89;71.84;97520.78;4946268;28;20027;-39
2022/07/15 02:50:25;;;;;;;2.45;1.60;;;15.00;90.50;;;14.85;72.05;97532.47;4946289;29;20031;-39
2022/07/15 02:52:51;;;;;;;2.53;1.65;;;15.00;90.50;;;14.81;72.32;97527.44;4945626;29;20030;-39
2022/07/15 02:55:18;;;;;;;3.53;1.42;;;14.90;90.70;;;14.75;72.77;97528.63;4945160;28;20045;-39
2022/07/15 02:57:44;;;;;;;2.42;1.50;;;14.90;90.80;;;14.72;72.63;97530.56;4947038;28;20031;-39
2022/07/15 03:00:14;;;;;;;2.42;1.35;;;14.80;90.80;;;14.68;72.50;97527.22;4940294;29;20039;-40
2022/07/15 03:02:41;;;;;;;3.03;1.55;;;14.80;90.70;;;14.63;73.08;97534.53;4947004;28;20120;-39
2022/07/15 03:05:08;;;;;;;1.55;1.42;;;14.80;90.90;;;14.57;73.53;97530.38;4941922;28;20118;-39
2022/07/15 03:07:33;;;;;;;3.67;1.55;;;14.70;91.10;;;14.56;73.94;97533.97;4934266;29;20031;-39
2022/07/15 03:09:59;;;;;;;6.60;1.80;;;14.60;91.20;;;14.53;73.76;97534.09;4944434;29;20594;-39
2022/07/15 03:12:25;;;;;;;2.78;1.60;;;14.70;91.20;;;14.52;73.46;97535.06;4945720;29;20403;-40
2022/07/15 03:14:51;;;;;;;2.30;1.42;;;14.70;91.10;;;14.51;73.41;97536.84;4929408;29;20067;-40
2022/07/15 03:17:17;;;;;;;2.75;1.50;;;14.70;91.10;;;14.49;73.97;97533.41;4945919;29;20035;-39
2022/07/15 03:19:42;;;;;;;2.60;1.60;;;14.60;91.30;;;14.48;74.02;97539.66;4942944;28;20496;-41
2022/07/15 03:22:08;;;;;;;2.47;1.50;;;14.60;91.30;;;14.47;74.19;97529.13;4941172;28;20042;-40
2022/07/15 03:24:34;;;;;;;2.70;1.50;;;14.60;91.40;;;14.46;74.62;97535.34;4943866;29;20031;-39
2022/07/15 03:27:00;;;;;;;3.33;1.48;;;14.60;91.60;;;14.44;74.78;97531.91;4947424;28;20038;-39
2022/07/15 03:29:26;;;;;;;1.80;1.30;;;14.60;91.60;;;14.43;74.48;97533.72;4943305;28;20039;-39
2022/07/15 03:31:52;;;;;;;2.53;1.50;;;14.60;91.60;;;14.44;74.54;97537.22;4947759;28;20037;-40
2022/07/15 03:34:18;;;;;;;2.58;1.48;;;14.60;91.60;;;14.43;74.57;97540.84;4945983;28;22216;-39
2022/07/15 03:36:44;;;;;;;2.47;1.40;;;14.60;91.60;;;14.37;75.14;97531.38;4943101;28;20019;-39
2022/07/15 03:39:10;;;;;;;2.22;1.33;;;14.60;91.80;;;14.38;75.48;97527.78;4939749;28;20229;-39
2022/07/15 03:41:36;;;;;;;2.00;1.27;;;14.60;91.90;;;14.44;75.22;97537.22;4943952;28;20035;-39
2022/07/15 03:44:02;;;;;;;2.40;1.25;;;14.60;91.90;;;14.41;75.28;97534.72;4945656;28;20094;-39
2022/07/15 03:46:29;;;;;;;5.00;1.70;;;14.50;91.90;;;14.42;75.90;97545.25;4944481;28;20051;-39
2022/07/15 03:48:56;;;;;;;5.93;1.38;;;14.60;92.10;;;14.42;75.92;97545.25;4943189;28;20039;-39
2022/07/15 03:51:24;;;;;;;1.80;1.20;;;14.60;92.10;;;14.42;75.79;97547.91;4943737;28;20477;-39
2022/07/15 03:53:51;;;;;;;2.92;1.58;;;14.60;92.10;;;14.44;76.99;97550.50;4945334;28;20024;-39
2022/07/15 03:56:17;;;;;;;2.33;1.50;;;14.60;92.50;;;14.41;76.52;97543.56;4943055;29;20054;-40
2022/07/15 03:58:44;;;;;;;3.15;1.40;;;14.60;92.40;;;14.47;76.01;97547.69;4940707;28;20479;-39
2022/07/15 04:01:10;;;;;;;2.35;1.60;;;14.60;92.30;;;14.46;76.15;97540.66;4938972;28;20059;-39
2022/07/15 04:03:36;;;;;;;2.47;1.55;;;14.60;92.40;;;14.55;75.87;97553.47;4939255;29;20114;-39
2022/07/15 04:06:02;;;;;;;2.67;1.50;;;14.60;92.20;;;14.57;75.97;97548.97;4938896;28;20122;-39
2022/07/15 04:08:28;;;;;;;2.75;1.58;;;14.70;92.30;;;14.57;76.65;97545.44;4944724;28;20110;-39
2022/07/15 04:10:56;;;;;;;4.50;1.70;;;14.70;92.50;;;14.60;77.18;97553.28;4940139;28;20031;-39
2022/07/15 04:13:22;;;;;;;2.42;1.40;;;14.70;92.70;;;14.63;77.69;97551.31;4943531;29;20023;-40
2022/07/15 04:15:48;;;;;;;3.42;1.60;;;14.70;92.80;;;14.69;77.40;97551.00;4939407;28;22558;-39
2022/07/15 04:18:13;;;;;;;2.55;1.70;;;14.80;92.90;;;14.73;77.47;97553.50;4934310;28;21009;-39
2022/07/15 04:20:40;;;;;;;4.43;1.70;;;14.80;92.90;;;14.86;77.77;97565.22;4937674;28;20341;-39
2022/07/15 04:23:05;;;;;;;2.50;1.42;;;14.90;93.00;;;14.92;77.76;97551.63;4938282;28;20052;-39
2022/07/15 04:25:31;;;;;;;2.67;1.73;;;15.10;93.10;;;15.04;76.78;97555.44;4941805;29;20470;-39
2022/07/15 04:27:57;;;;;;;3.30;1.80;;;15.20;92.80;;;15.21;76.57;97554.53;4934935;28;20024;-40
2022/07/15 04:30:23;;;;;;;2.40;1.88;;;15.30;92.70;;;15.36;75.58;97564.34;4932413;28;20146;-40
2022/07/15 04:32:49;;;;;;;2.83;1.77;;;15.50;92.50;;;15.46;74.38;97562.06;4938390;28;20027;-40
2022/07/15 04:35:14;;;;;;;3.47;1.85;;;15.50;92.10;;;15.59;73.39;97560.44;4932048;28;20075;-40
2022/07/15 04:37:40;;;;;;;4.65;2.05;;;15.70;91.80;;;15.67;72.33;97549.41;4941702;28;20094;-39
2022/07/15 04:40:07;;;;;;;2.25;1.73;;;15.80;91.40;;;15.81;71.68;97559.31;4940828;28;20139;-40
2022/07/15 04:42:33;;;;;;;2.22;1.58;;;15.90;91.20;;;15.87;71.39;97560.75;4927411;28;20054;-40
2022/07/15 04:44:59;;;;;;;2.97;1.58;;;16.00;91.10;;;15.91;70.60;97559.63;4937780;28;20027;-40
2022/07/15 04:47:25;;;;;;;2.58;1.70;;;16.00;90.90;;;15.98;70.29;97561.00;4936157;28;20179;-41
2022/07/15 04:52:34;;;;;;;2.75;1.70;;;16.10;90.40;;;16.02;68.94;97562.53;4929663;28;20039;-40
2022/07/15 04:55:02;;;;;;;2.25;1.55;;;16.20;90.30;;;16.06;69.41;97557.91;4937207;28;20035;-40
2022/07/15 04:57:27;;;;;;;2.90;1.65;;;16.20;90.40;;;16.09;69.16;97563.91;4939194;28;20023;-40
2022/07/15 04:59:53;;;;;;;2.90;1.58;;;16.20;90.40;;;16.12;68.91;97557.56;4932198;28;20689;-40
2022/07/15 05:02:19;;;;;;;4.10;1.38;;;16.20;90.30;;;16.14;66.65;97553.88;4937018;28;20023;-40
2022/07/15 05:04:44;;;;;;;3.72;1.77;;;16.30;89.20;;;16.24;66.28;97559.53;4942596;29;20034;-40
2022/07/15 05:07:10;;;;;;;2.95;1.60;;;16.30;88.90;;;16.31;66.05;97563.56;4943985;28;20058;-40
2022/07/15 05:09:36;;;;;;;2.33;1.60;;;16.40;88.80;;;16.38;65.29;97553.41;4946473;29;20035;-39
2022/07/15 05:12:02;;;;;;;2.72;1.75;;;16.50;88.40;;;16.52;65.34;97569.44;4933889;28;20155;-40
2022/07/15 05:14:27;;;;;;;3.38;1.63;;;16.60;88.30;;;16.67;64.52;97553.50;4929846;29;20059;-40
2022/07/15 05:16:53;;;;;;;2.70;1.58;;;16.70;87.90;;;16.89;62.73;97566.44;4943407;28;20035;-40
2022/07/15 05:19:19;;;;;;;3.67;1.63;;;16.90;86.80;;;17.24;60.63;97569.63;4940599;28;20042;-40
2022/07/15 05:21:44;;;;;;;3.35;1.70;;;17.10;85.70;;;17.71;61.14;97576.50;4943408;28;20483;-39
2022/07/15 05:24:10;;;;;;;4.85;1.77;;;17.40;86.50;;;18.39;58.89;97564.16;4944636;28;20420;-40
2022/07/15 05:26:36;;;;;;;2.60;1.48;;;17.70;85.80;;;18.83;57.52;97547.00;4940749;28;20042;-39
2022/07/15 05:29:02;;;;;;;6.40;1.80;;;18.20;85.40;;;19.39;56.21;97572.59;4946290;28;20094;-40
2022/07/15 05:31:27;;;;;;;4.50;1.58;;;18.50;84.40;;;19.91;51.80;97571.59;4948060;28;20054;-40
2022/07/15 05:33:54;;;;;;;4.40;1.75;;;18.90;80.80;;;20.37;49.83;97578.09;4946177;29;20046;-41
2022/07/15 05:36:20;;;;;;;3.40;1.70;;;19.30;79.30;;;20.77;48.27;97581.34;4943816;28;20031;-40
2022/07/15 05:38:45;;;;;;;2.95;1.42;;;19.70;77.80;;;20.77;48.06;97575.97;4946124;28;20038;-41
2022/07/15 05:41:11;;;;;;;2.88;1.92;;;19.80;76.60;;;20.54;48.31;97579.50;4947528;29;20047;-41
2022/07/15 05:43:37;;;;;;;4.15;1.95;;;19.90;76.10;;;20.11;48.13;97580.00;4946424;29;20062;-41
2022/07/15 05:46:05;;;;;;;2.88;1.73;;;19.70;75.40;;;19.88;50.12;97589.69;4947485;28;20035;-41
2022/07/15 05:48:32;;;;;;;4.35;1.70;;;19.50;77.20;;;19.73;50.35;97587.13;4949140;29;20693;-41
2022/07/15 05:50:58;;;;;;;3.47;1.90;;;19.40;77.10;;;19.70;50.67;97589.16;4943321;28;20550;-40
2022/07/15 05:53:24;;;;;;;4.10;1.65;;;19.30;77.40;;;19.57;50.30;97592.69;4948393;29;20486;-41
2022/07/15 05:55:49;;;;;;;3.58;1.75;;;19.40;77.30;;;19.46;50.17;97585.41;4946851;28;20031;-41
2022/07/15 05:58:15;;;;;;;3.75;1.67;;;19.30;76.40;;;19.36;50.02;97591.50;4950666;28;20479;-40
2022/07/15 06:00:41;;;;;;;2.30;1.60;;;19.20;76.30;;;19.38;51.58;97579.75;4947976;29;20454;-41
2022/07/15 06:03:06;;;;;;;3.22;1.83;;;19.20;77.90;;;19.43;51.91;97593.69;4948605;29;20260;-40
2022/07/15 06:05:32;;;;;;;3.83;2.20;;;19.20;78.10;;;19.42;51.55;97591.09;4949451;29;20431;-41
2022/07/15 06:07:59;;;;;;;4.45;2.03;;;19.20;77.60;;;19.39;51.79;97588.63;4934667;29;20126;-41
2022/07/15 06:10:25;;;;;;;4.38;2.03;;;19.30;77.40;;;19.39;50.06;97596.66;4948768;29;20122;-40
2022/07/15 06:12:55;;;;;;;4.00;1.80;;;19.30;76.40;;;19.38;51.17;97597.59;4947355;29;20489;-40
2022/07/15 06:15:22;;;;;;;2.10;1.77;;;19.30;76.70;;;19.37;51.00;97593.25;4947248;28;20054;-41
2022/07/15 06:17:49;;;;;;;6.03;2.25;;;19.30;76.70;;;19.42;50.43;97601.81;4948795;29;20554;-41
2022/07/15 06:20:15;;;;;;;4.22;1.83;;;19.40;76.70;;;19.57;50.56;97597.19;4949884;29;20042;-40
2022/07/15 06:22:41;;;;;;;5.55;2.17;;;19.40;76.40;;;19.52;50.88;97589.47;4945275;28;20031;-40
2022/07/15 06:25:08;;;;;;;4.60;1.63;;;19.50;76.60;;;19.65;51.23;97595.69;4950389;28;20038;-40
2022/07/15 06:27:34;;;;;;;3.50;1.75;;;19.50;77.10;;;19.74;51.39;97587.97;4947687;28;20039;-40
2022/07/15 06:30:00;;;;;;;2.75;1.65;;;19.70;77.50;;;19.86;51.39;97581.75;4949659;28;20619;-41
2022/07/15 06:32:25;;;;;;;4.10;1.73;;;19.80;77.60;;;19.99;50.95;97593.31;4943908;28;20031;-41
2022/07/15 06:34:51;;;;;;;3.53;1.85;;;19.90;76.70;;;20.07;48.66;97592.75;4949417;28;20039;-40
2022/07/15 06:37:17;;;;;;;2.55;1.70;;;20.00;74.20;;;20.14;48.27;97594.00;4949894;28;20039;-41
2022/07/15 06:39:43;;;;;;;4.50;1.88;;;20.10;73.90;;;20.20;48.74;97596.22;4946892;28;20043;-40
2022/07/15 06:42:10;;;;;;;5.63;1.80;;;20.20;74.10;;;20.29;48.73;97591.19;4946323;28;20027;-41
2022/07/15 06:44:35;;;;;;;3.88;2.13;;;20.30;74.50;;;20.35;48.20;97586.25;4943357;28;20039;-42
2022/07/15 06:47:03;;;;;;;3.85;2.00;;;20.30;73.60;;;20.47;48.26;97599.69;4942015;28;20033;-40
2022/07/15 06:49:29;;;;;;;4.43;1.88;;;20.40;73.90;;;20.56;48.89;97593.63;4947627;28;20376;-40
2022/07/15 06:51:55;;;;;;;2.65;1.65;;;20.50;74.20;;;20.61;49.39;97594.19;4948624;28;20058;-40
2022/07/15 06:54:20;;;;;;;4.78;1.95;;;20.60;74.90;;;20.69;47.32;97596.28;4944013;28;20035;-40
2022/07/15 06:56:46;;;;;;;3.42;1.73;;;20.70;72.90;;;20.63;45.52;97572.63;4946923;28;20038;-40
2022/07/15 06:59:12;;;;;;;5.75;1.98;;;20.70;71.40;;;20.78;46.04;97598.25;4933522;29;20027;-41
2022/07/15 07:01:37;;;;;;;3.13;1.50;;;20.80;71.10;;;20.89;46.13;97594.78;4944555;28;20039;-41
2022/07/15 07:04:04;;;;;;;1.92;1.27;;;20.80;70.90;;;21.03;46.00;97591.94;4945486;28;20040;-41
2022/07/15 07:06:30;;;;;;;2.60;1.50;;;21.00;70.90;;;21.16;45.26;97592.69;4946115;28;20038;-41
2022/07/15 07:08:56;;;;;;;2.88;1.42;;;21.10;70.30;;;21.28;44.44;97595.38;4949115;28;20029;-41
2022/07/15 07:11:21;;;;;;;3.67;1.40;;;21.20;69.40;;;21.35;43.00;97591.25;4948619;28;20027;-41
2022/07/15 07:13:48;;;;;;;4.10;1.70;;;21.30;67.40;;;21.40;38.86;97593.59;4943778;29;20504;-41
2022/07/15 07:16:14;;;;;;;4.90;1.40;;;21.40;61.80;;;21.44;38.40;97600.41;4942199;28;20445;-42
2022/07/15 07:18:40;;;;;;;5.38;1.42;;;21.40;60.20;;;21.48;36.82;97594.72;4944203;28;20039;-41
2022/07/15 07:21:06;;;;;;;1.90;1.30;;;21.50;58.50;;;21.53;37.06;97581.81;4948499;29;20492;-40
2022/07/15 07:23:32;;;;;;;3.08;1.55;;;21.60;59.20;;;21.71;38.64;97592.03;4945581;28;20445;-41
2022/07/15 07:25:59;;;;;;;2.25;1.10;;;21.70;60.30;;;21.82;38.62;97594.75;4971579;23;20638;-46
2022/07/15 07:28:25;;;;;;;1.52;1.17;;;21.80;60.30;;;21.93;38.51;97600.09;4959425;28;20305;-48
2022/07/15 07:30:52;;;;;;;3.70;1.55;;;21.90;60.30;;;22.13;36.37;97592.28;4958206;28;20391;-49
2022/07/15 07:33:18;;;;;;;2.65;1.50;;;22.00;58.40;;;21.96;37.24;97590.09;4955330;28;20470;-47
2022/07/15 07:35:44;;;;;;;2.30;1.30;;;21.90;58.70;;;21.96;38.70;97593.63;4950033;28;20400;-47
2022/07/15 07:38:11;;;;;;;2.95;1.35;;;21.90;60.00;;;22.04;39.51;97593.03;4946906;28;20115;-49
2022/07/15 07:40:37;;;;;;;3.22;1.48;;;22.00;61.90;;;21.98;38.40;97588.13;4944810;28;20034;-48
2022/07/15 07:43:03;;;;;;;3.08;1.60;;;22.00;60.20;;;22.01;38.46;97588.75;4941847;28;20429;-50
2022/07/15 07:45:29;;;;;;;6.82;1.75;;;21.90;59.70;;;22.07;40.26;97590.94;4947233;28;20043;-50
2022/07/15 07:47:58;;;;;;;3.75;1.55;;;22.00;61.90;;;22.10;38.62;97596.03;4941583;28;20809;-48
2022/07/15 07:50:23;;;;;;;2.72;1.40;;;22.10;60.30;;;22.19;38.72;97597.13;4946969;28;20035;-47
2022/07/15 07:52:49;;;;;;;2.88;1.40;;;22.10;60.80;;;22.23;38.39;97597.75;4941702;28;20027;-48
2022/07/15 07:55:15;;;;;;;6.47;1.50;;;22.20;59.70;;;22.24;38.22;97599.47;4943375;28;20469;-49
2022/07/15 07:57:56;;;;;;;5.07;1.38;;;22.20;59.90;;;22.27;37.79;97586.66;4945481;28;20402;-50
2022/07/15 08:00:26;;;;;;;3.45;1.73;;;22.20;59.20;;;22.34;39.25;97597.75;4941776;28;20086;-49
2022/07/15 08:02:54;;;;;;;2.97;1.40;;;22.30;60.50;;;22.46;39.07;97602.13;4947579;28;20154;-47
2022/07/15 08:05:20;;;;;;;4.82;1.45;;;22.40;60.50;;;22.51;37.63;97582.94;4946343;28;20386;-49
2022/07/15 08:07:46;;;;;;;4.15;1.50;;;22.50;59.00;;;22.59;38.66;97590.34;4947187;28;20062;-49
2022/07/15 08:10:16;;;;;;;3.30;1.55;;;22.50;59.80;;;22.64;38.17;97582.78;4947119;28;20047;-49
2022/07/15 08:12:42;;;;;;;3.20;1.50;;;22.60;59.50;;;22.76;38.25;97583.59;4942595;28;20031;-49
2022/07/15 08:15:11;;;;;;;3.60;1.63;;;22.70;59.70;;;22.78;38.35;97585.16;4945785;28;20031;-46
2022/07/15 08:17:38;;;;;;;5.35;1.33;;;22.70;59.70;;;22.82;36.93;97586.59;4946769;28;20038;-50
2022/07/15 08:20:09;;;;;;;3.65;1.60;;;22.70;57.80;;;22.79;37.44;97586.00;4942120;28;20059;-46
2022/07/15 08:22:36;;;;;;;3.20;1.60;;;22.70;58.40;;;22.83;37.70;97590.16;4944840;28;20038;-47
2022/07/15 08:25:02;;;;;;;3.10;1.65;;;22.80;59.40;;;22.80;37.10;97588.56;4941443;28;20043;-47
2022/07/15 08:27:28;;;;;;;2.85;1.67;;;22.80;58.60;;;22.80;37.34;97585.03;4946482;28;20047;-51
2022/07/15 08:29:55;;;;;;;2.67;1.27;;;22.80;58.00;;;22.80;38.59;97585.03;4944859;28;20039;-47
2022/07/15 08:32:21;;;;;;;3.92;1.50;;;22.80;59.20;;;22.75;37.09;97565.75;4944702;28;20684;-48
2022/07/15 08:34:47;;;;;;;4.88;1.60;;;22.80;58.70;;;22.93;36.37;97579.47;4942583;28;20027;-50
2022/07/15 08:37:13;;;;;;;5.97;1.80;;;22.80;57.80;;;22.93;36.78;97580.31;4938021;28;20027;-47
2022/07/15 08:39:39;;;;;;;5.32;1.98;;;22.90;57.90;;;22.98;36.74;97579.94;4947258;28;20345;-48
2022/07/15 08:42:06;;;;;;;3.78;1.80;;;22.90;58.00;;;23.08;36.99;97571.97;4944143;28;20563;-49
2022/07/15 08:44:33;;;;;;;2.45;1.45;;;23.00;58.30;;;23.17;37.25;97576.56;4945425;28;20511;-48
2022/07/15 08:47:04;;;;;;;3.05;1.50;;;23.10;58.00;;;23.29;36.51;97578.19;4943834;28;20043;-48
2022/07/15 08:49:32;;;;;;;2.33;1.60;;;23.20;57.90;;;23.34;35.51;97575.13;4939365;28;20039;-48
2022/07/15 08:51:59;;;;;;;2.40;1.25;;;23.30;56.60;;;23.36;35.61;97582.06;4943368;28;20617;-50
2022/07/15 08:54:25;;;;;;;6.57;1.73;;;23.30;56.70;;;23.41;36.04;97581.66;4941167;28;20039;-49
2022/07/15 08:56:51;;;;;;;5.95;1.77;;;23.40;56.80;;;23.44;35.45;97586.78;4946574;28;20510;-50
2022/07/15 08:59:17;;;;;;;4.45;1.60;;;23.40;55.70;;;23.36;36.74;97587.44;4945070;28;20027;-49
2022/07/15 09:01:46;;;;;;;4.70;1.50;;;23.40;57.00;;;23.35;35.67;97585.75;4942017;28;20022;-49
2022/07/15 09:04:13;;;;;;;1.70;1.20;;;23.40;56.30;;;23.21;35.21;97581.53;4938907;28;20055;-51
2022/07/15 09:06:50;;;;;;;7.80;2.03;;;23.20;55.40;;;23.23;36.36;97586.81;4945438;28;20022;-50
2022/07/15 09:09:29;;;;;;;3.15;1.30;;;23.20;56.90;;;23.22;36.61;97582.38;4935937;28;20067;-50
2022/07/15 09:12:10;;;;;;;8.00;1.83;;;23.20;57.00;;;23.20;36.79;97590.63;4945522;28;20748;-47
2022/07/15 09:14:38;;;;;;;4.72;1.55;;;23.20;57.30;;;23.14;37.00;97592.97;4945143;28;20134;-48
2022/07/15 09:17:18;;;;;;;2.92;1.50;;;23.20;58.00;;;23.02;36.63;97589.44;4943430;28;20038;-49
2022/07/15 09:20:12;;;;;;;2.78;1.65;;;23.10;57.30;;;22.98;37.53;97583.47;4940462;28;20125;-49
2022/07/15 09:22:52;;;;;;;2.55;1.58;;;23.00;57.80;;;22.91;36.61;97586.81;4936668;28;20042;-49
2022/07/15 09:25:20;;;;;;;3.58;1.88;;;22.90;57.00;;;22.68;36.64;97585.09;4937533;28;20141;-50
2022/07/15 09:27:46;;;;;;;5.20;1.80;;;22.80;56.90;;;22.50;36.71;97591.97;4937275;28;20113;-46
2022/07/15 09:33:34;;;;;;;2.55;1.67;;;22.60;58.10;;;22.86;37.75;97593.44;4939938;28;20497;-47
2022/07/15 09:36:20;;;;;;;3.85;1.52;;;22.80;59.00;;;23.12;37.22;97587.72;4937445;28;20468;-49
2022/07/15 09:39:04;;;;;;;3.08;1.45;;;23.10;58.20;;;23.03;35.61;97591.16;4939814;28;20065;-48
2022/07/15 09:41:44;;;;;;;4.95;1.88;;;23.10;56.20;;;23.04;36.36;97588.38;4942532;28;20613;-51
2022/07/15 09:44:19;;;;;;;4.05;1.70;;;23.10;56.60;;;23.10;36.15;97596.91;4938297;28;20038;-51
2022/07/15 09:46:49;;;;;;;3.90;1.60;;;23.10;56.60;;;23.04;35.96;97585.69;4937049;28;20039;-51
2022/07/15 09:49:33;;;;;;;4.07;1.60;;;23.10;55.70;;;23.17;36.41;97601.63;4940220;28;20038;-48
2022/07/15 09:52:11;;;;;;;3.00;1.50;;;23.20;56.70;;;23.38;37.10;97598.94;4934573;28;20031;-47
2022/07/15 09:54:46;;;;;;;2.83;1.50;;;23.30;57.50;;;23.62;35.82;97601.34;4929469;28;20031;-49
2022/07/15 09:57:15;;;;;;;3.58;1.40;;;23.60;56.30;;;23.74;35.18;97595.84;4940800;28;20403;-50
2022/07/15 09:59:46;;;;;;;5.93;1.88;;;23.70;55.70;;;23.76;35.88;97594.75;4944271;28;20027;-50
2022/07/15 10:02:11;;;;;;;4.70;1.95;;;23.80;56.10;;;23.81;34.90;97584.47;4941190;28;20039;-51
2022/07/15 10:04:38;;;;;;;3.30;1.65;;;23.90;55.30;;;23.81;34.96;97580.91;4946406;28;20121;-50
2022/07/15 10:07:05;;;;;;;4.03;1.63;;;23.90;54.70;;;23.70;35.33;97575.59;4931452;28;20498;-51
2022/07/15 10:09:34;;;;;;;3.22;1.60;;;23.70;55.10;;;23.73;35.52;97595.00;4939767;28;20554;-49
2022/07/15 10:12:25;;;;;;;2.38;1.20;;;23.70;55.80;;;23.86;35.71;97589.44;4942502;28;20510;-48
2022/07/15 10:15:19;;;;;;;3.97;1.83;;;23.80;55.80;;;23.91;35.04;97586.34;4937208;28;20039;-50
2022/07/15 10:18:19;;;;;;;5.47;1.80;;;24.00;55.60;;;23.98;34.61;97584.81;4944493;28;20061;-50
2022/07/15 10:21:49;;;;;;;2.05;1.35;;;24.00;54.70;;;23.90;35.20;97592.69;4938205;28;20042;-51
2022/07/15 10:25:10;;;;;;;4.47;2.10;;;23.90;54.70;;;23.72;35.84;97587.06;4913314;28;20054;-46
2022/07/15 10:28:00;;;;;;;5.43;1.73;;;23.80;55.70;;;23.72;35.60;97571.75;4938056;28;20043;-50
2022/07/15 10:30:27;;;;;;;2.75;1.73;;;23.80;55.40;;;23.89;36.18;97577.56;4927322;28;20500;-50